sensor_id;sensor_type;location;lat;lon;timestamp;temperature;humidity
68943;DHT22;60852;52.190;4.422;2023-04-16T00:00:45;9.34;78.48
68943;DHT22;60852;52.190;4.422;2023-04-16T00:03:12;9.32;78.72
68943;DHT22;60852;52.190;4.422;2023-04-16T00:05:38;9.31;78.71
68943;DHT22;60852;52.190;4.422;2023-04-16T00:08:03;9.36;78.52
68943;DHT22;60852;52.190;4.422;2023-04-16T00:10:29;9.42;78.16
68943;DHT22;60852;52.190;4.422;2023-04-16T00:12:54;9.46;77.99
68943;DHT22;60852;52.190;4.422;2023-04-16T00:15:20;9.42;77.81
68943;DHT22;60852;52.190;4.422;2023-04-16T00:17:45;9.39;78.07
68943;DHT22;60852;52.190;4.422;2023-04-16T00:20:11;9.39;77.88
68943;DHT22;60852;52.190;4.422;2023-04-16T00:22:36;9.49;77.69
68943;DHT22;60852;52.190;4.422;2023-04-16T00:25:02;9.53;77.83
68943;DHT22;60852;52.190;4.422;2023-04-16T00:27:27;9.52;78.05
68943;DHT22;60852;52.190;4.422;2023-04-16T00:29:53;9.42;78.42
68943;DHT22;60852;52.190;4.422;2023-04-16T00:32:18;9.46;78.82
68943;DHT22;60852;52.190;4.422;2023-04-16T00:34:43;9.41;78.87
68943;DHT22;60852;52.190;4.422;2023-04-16T00:37:09;9.49;78.72
68943;DHT22;60852;52.190;4.422;2023-04-16T00:39:35;9.55;78.43
68943;DHT22;60852;52.190;4.422;2023-04-16T00:42:00;9.52;78.23
68943;DHT22;60852;52.190;4.422;2023-04-16T00:44:26;9.49;78.20
68943;DHT22;60852;52.190;4.422;2023-04-16T00:46:51;9.41;78.31
68943;DHT22;60852;52.190;4.422;2023-04-16T00:49:17;9.39;78.61
68943;DHT22;60852;52.190;4.422;2023-04-16T00:51:42;9.45;78.93
68943;DHT22;60852;52.190;4.422;2023-04-16T00:54:08;9.49;79.19
68943;DHT22;60852;52.190;4.422;2023-04-16T00:56:34;9.41;79.15
68943;DHT22;60852;52.190;4.422;2023-04-16T00:59:00;9.48;79.17
68943;DHT22;60852;52.190;4.422;2023-04-16T01:01:26;9.45;79.24
68943;DHT22;60852;52.190;4.422;2023-04-16T01:03:51;9.39;79.47
68943;DHT22;60852;52.190;4.422;2023-04-16T01:06:17;9.46;79.47
68943;DHT22;60852;52.190;4.422;2023-04-16T01:08:43;9.55;79.20
68943;DHT22;60852;52.190;4.422;2023-04-16T01:11:10;9.46;78.70
68943;DHT22;60852;52.190;4.422;2023-04-16T01:13:35;9.35;78.75
68943;DHT22;60852;52.190;4.422;2023-04-16T01:16:08;9.35;78.72
68943;DHT22;60852;52.190;4.422;2023-04-16T01:18:35;9.35;78.87
68943;DHT22;60852;52.190;4.422;2023-04-16T01:21:01;9.35;78.83
68943;DHT22;60852;52.190;4.422;2023-04-16T01:23:28;9.34;78.99
68943;DHT22;60852;52.190;4.422;2023-04-16T01:25:53;9.42;78.87
68943;DHT22;60852;52.190;4.422;2023-04-16T01:28:19;9.42;78.90
68943;DHT22;60852;52.190;4.422;2023-04-16T01:30:44;9.32;79.06
68943;DHT22;60852;52.190;4.422;2023-04-16T01:33:11;9.31;79.16
68943;DHT22;60852;52.190;4.422;2023-04-16T01:35:37;9.21;79.42
68943;DHT22;60852;52.190;4.422;2023-04-16T01:38:05;9.31;79.38
68943;DHT22;60852;52.190;4.422;2023-04-16T01:40:31;9.35;79.11
68943;DHT22;60852;52.190;4.422;2023-04-16T01:42:56;9.35;79.27
68943;DHT22;60852;52.190;4.422;2023-04-16T01:45:22;9.38;79.27
68943;DHT22;60852;52.190;4.422;2023-04-16T01:47:49;9.46;78.86
68943;DHT22;60852;52.190;4.422;2023-04-16T01:50:16;9.45;78.72
68943;DHT22;60852;52.190;4.422;2023-04-16T01:52:42;9.45;78.60
68943;DHT22;60852;52.190;4.422;2023-04-16T01:55:08;9.38;78.52
68943;DHT22;60852;52.190;4.422;2023-04-16T01:57:33;9.34;79.00
68943;DHT22;60852;52.190;4.422;2023-04-16T01:59:59;9.35;79.00
68943;DHT22;60852;52.190;4.422;2023-04-16T02:02:24;9.42;78.95
68943;DHT22;60852;52.190;4.422;2023-04-16T02:04:54;9.51;79.08
68943;DHT22;60852;52.190;4.422;2023-04-16T02:07:20;9.49;78.79
68943;DHT22;60852;52.190;4.422;2023-04-16T02:09:45;9.52;78.95
68943;DHT22;60852;52.190;4.422;2023-04-16T02:12:11;9.49;78.92
68943;DHT22;60852;52.190;4.422;2023-04-16T02:14:36;9.51;79.03
68943;DHT22;60852;52.190;4.422;2023-04-16T02:17:02;9.39;79.25
68943;DHT22;60852;52.190;4.422;2023-04-16T02:19:28;9.34;79.38
68943;DHT22;60852;52.190;4.422;2023-04-16T02:21:54;9.34;79.64
68943;DHT22;60852;52.190;4.422;2023-04-16T02:24:20;9.42;79.33
68943;DHT22;60852;52.190;4.422;2023-04-16T02:26:46;9.51;79.07
68943;DHT22;60852;52.190;4.422;2023-04-16T02:29:12;9.39;78.88
68943;DHT22;60852;52.190;4.422;2023-04-16T02:31:37;9.38;79.03
68943;DHT22;60852;52.190;4.422;2023-04-16T02:34:04;9.44;79.11
68943;DHT22;60852;52.190;4.422;2023-04-16T02:36:30;9.41;79.07
68943;DHT22;60852;52.190;4.422;2023-04-16T02:38:59;9.46;79.17
68943;DHT22;60852;52.190;4.422;2023-04-16T02:41:24;9.51;79.13
68943;DHT22;60852;52.190;4.422;2023-04-16T02:43:50;9.41;79.37
68943;DHT22;60852;52.190;4.422;2023-04-16T02:46:15;9.45;79.29
68943;DHT22;60852;52.190;4.422;2023-04-16T02:48:41;9.41;79.18
68943;DHT22;60852;52.190;4.422;2023-04-16T02:51:06;9.31;79.82
68943;DHT22;60852;52.190;4.422;2023-04-16T02:53:32;9.42;79.91
68943;DHT22;60852;52.190;4.422;2023-04-16T02:55:57;9.42;79.78
68943;DHT22;60852;52.190;4.422;2023-04-16T02:58:24;9.38;80.03
68943;DHT22;60852;52.190;4.422;2023-04-16T03:00:51;9.42;80.04
68943;DHT22;60852;52.190;4.422;2023-04-16T03:03:18;9.44;79.73
68943;DHT22;60852;52.190;4.422;2023-04-16T03:05:44;9.35;79.97
68943;DHT22;60852;52.190;4.422;2023-04-16T03:08:09;9.38;80.07
68943;DHT22;60852;52.190;4.422;2023-04-16T03:10:35;9.42;80.19
68943;DHT22;60852;52.190;4.422;2023-04-16T03:13:02;9.42;80.23
68943;DHT22;60852;52.190;4.422;2023-04-16T03:15:28;9.45;80.56
68943;DHT22;60852;52.190;4.422;2023-04-16T03:17:53;9.49;80.83
68943;DHT22;60852;52.190;4.422;2023-04-16T03:20:19;9.46;81.00
68943;DHT22;60852;52.190;4.422;2023-04-16T03:22:45;9.42;81.36
68943;DHT22;60852;52.190;4.422;2023-04-16T03:25:11;9.31;82.06
68943;DHT22;60852;52.190;4.422;2023-04-16T03:27:37;9.24;82.72
68943;DHT22;60852;52.190;4.422;2023-04-16T03:30:07;9.13;83.32
68943;DHT22;60852;52.190;4.422;2023-04-16T03:32:33;9.07;83.64
68943;DHT22;60852;52.190;4.422;2023-04-16T03:34:58;9.13;83.51
68943;DHT22;60852;52.190;4.422;2023-04-16T03:37:23;9.13;83.39
68943;DHT22;60852;52.190;4.422;2023-04-16T03:39:49;9.10;83.42
68943;DHT22;60852;52.190;4.422;2023-04-16T03:42:14;9.05;83.56
68943;DHT22;60852;52.190;4.422;2023-04-16T03:44:40;9.04;83.89
68943;DHT22;60852;52.190;4.422;2023-04-16T03:47:05;8.96;83.98
68943;DHT22;60852;52.190;4.422;2023-04-16T03:49:31;9.00;83.85
68943;DHT22;60852;52.190;4.422;2023-04-16T03:51:56;8.97;84.08
68943;DHT22;60852;52.190;4.422;2023-04-16T03:54:22;8.90;84.43
68943;DHT22;60852;52.190;4.422;2023-04-16T03:56:47;8.94;84.70
68943;DHT22;60852;52.190;4.422;2023-04-16T03:59:13;8.97;84.60
68943;DHT22;60852;52.190;4.422;2023-04-16T04:01:38;9.00;84.61
68943;DHT22;60852;52.190;4.422;2023-04-16T04:04:04;9.04;84.71
68943;DHT22;60852;52.190;4.422;2023-04-16T04:06:29;9.03;84.68
68943;DHT22;60852;52.190;4.422;2023-04-16T04:08:55;9.01;84.51
68943;DHT22;60852;52.190;4.422;2023-04-16T04:11:20;9.05;84.53
68943;DHT22;60852;52.190;4.422;2023-04-16T04:13:46;9.15;84.48
68943;DHT22;60852;52.190;4.422;2023-04-16T04:16:11;9.08;84.31
68943;DHT22;60852;52.190;4.422;2023-04-16T04:18:37;8.97;84.64
68943;DHT22;60852;52.190;4.422;2023-04-16T04:21:06;9.03;85.06
68943;DHT22;60852;52.190;4.422;2023-04-16T04:23:32;9.04;84.99
68943;DHT22;60852;52.190;4.422;2023-04-16T04:25:58;9.08;85.00
68943;DHT22;60852;52.190;4.422;2023-04-16T04:28:23;9.11;84.72
68943;DHT22;60852;52.190;4.422;2023-04-16T04:30:49;9.04;84.75
68943;DHT22;60852;52.190;4.422;2023-04-16T04:33:15;8.96;84.68
68943;DHT22;60852;52.190;4.422;2023-04-16T04:35:40;8.91;85.05
68943;DHT22;60852;52.190;4.422;2023-04-16T04:38:06;8.97;84.76
68943;DHT22;60852;52.190;4.422;2023-04-16T04:40:31;9.05;84.73
68943;DHT22;60852;52.190;4.422;2023-04-16T04:42:56;9.10;84.71
68943;DHT22;60852;52.190;4.422;2023-04-16T04:45:22;9.15;84.57
68943;DHT22;60852;52.190;4.422;2023-04-16T04:47:51;9.18;84.49
68943;DHT22;60852;52.190;4.422;2023-04-16T04:50:17;9.07;84.87
68943;DHT22;60852;52.190;4.422;2023-04-16T04:52:42;9.10;85.01
68943;DHT22;60852;52.190;4.422;2023-04-16T04:55:08;9.20;84.80
68943;DHT22;60852;52.190;4.422;2023-04-16T04:57:33;9.20;84.54
68943;DHT22;60852;52.190;4.422;2023-04-16T04:59:59;9.23;84.36
68943;DHT22;60852;52.190;4.422;2023-04-16T05:02:24;9.24;84.28
68943;DHT22;60852;52.190;4.422;2023-04-16T05:04:50;9.11;84.68
68943;DHT22;60852;52.190;4.422;2023-04-16T05:07:15;9.07;84.70
68943;DHT22;60852;52.190;4.422;2023-04-16T05:09:41;9.04;84.94
68943;DHT22;60852;52.190;4.422;2023-04-16T05:12:06;9.05;84.76
68943;DHT22;60852;52.190;4.422;2023-04-16T05:14:31;9.11;84.79
68943;DHT22;60852;52.190;4.422;2023-04-16T05:16:57;9.08;84.54
68943;DHT22;60852;52.190;4.422;2023-04-16T05:19:22;9.07;84.72
68943;DHT22;60852;52.190;4.422;2023-04-16T05:21:48;9.17;84.53
68943;DHT22;60852;52.190;4.422;2023-04-16T05:24:13;9.18;84.36
68943;DHT22;60852;52.190;4.422;2023-04-16T05:26:39;9.11;84.21
68943;DHT22;60852;52.190;4.422;2023-04-16T05:29:04;9.13;84.38
68943;DHT22;60852;52.190;4.422;2023-04-16T05:31:30;9.15;84.30
68943;DHT22;60852;52.190;4.422;2023-04-16T05:33:55;9.17;84.29
68943;DHT22;60852;52.190;4.422;2023-04-16T05:36:21;9.21;84.22
68943;DHT22;60852;52.190;4.422;2023-04-16T05:38:46;9.23;84.25
68943;DHT22;60852;52.190;4.422;2023-04-16T05:41:12;9.15;84.40
68943;DHT22;60852;52.190;4.422;2023-04-16T05:43:37;9.15;84.36
68943;DHT22;60852;52.190;4.422;2023-04-16T05:46:03;9.17;84.52
68943;DHT22;60852;52.190;4.422;2023-04-16T05:48:28;9.13;84.31
68943;DHT22;60852;52.190;4.422;2023-04-16T05:50:53;9.11;84.75
68943;DHT22;60852;52.190;4.422;2023-04-16T05:53:19;9.23;84.73
68943;DHT22;60852;52.190;4.422;2023-04-16T05:55:44;9.20;84.65
68943;DHT22;60852;52.190;4.422;2023-04-16T05:58:11;9.24;84.70
68943;DHT22;60852;52.190;4.422;2023-04-16T06:00:36;9.27;84.56
68943;DHT22;60852;52.190;4.422;2023-04-16T06:03:01;9.28;84.73
68943;DHT22;60852;52.190;4.422;2023-04-16T06:05:27;9.25;85.36
68943;DHT22;60852;52.190;4.422;2023-04-16T06:07:53;9.27;85.70
68943;DHT22;60852;52.190;4.422;2023-04-16T06:10:20;9.20;85.81
68943;DHT22;60852;52.190;4.422;2023-04-16T06:12:45;9.21;86.10
68943;DHT22;60852;52.190;4.422;2023-04-16T06:15:11;9.24;86.19
68943;DHT22;60852;52.190;4.422;2023-04-16T06:17:36;9.30;86.23
68943;DHT22;60852;52.190;4.422;2023-04-16T06:20:01;9.24;86.26
68943;DHT22;60852;52.190;4.422;2023-04-16T06:22:27;9.18;86.27
68943;DHT22;60852;52.190;4.422;2023-04-16T06:24:52;9.11;86.49
68943;DHT22;60852;52.190;4.422;2023-04-16T06:27:18;9.07;86.75
68943;DHT22;60852;52.190;4.422;2023-04-16T06:29:43;9.10;86.82
68943;DHT22;60852;52.190;4.422;2023-04-16T06:32:09;9.10;87.31
68943;DHT22;60852;52.190;4.422;2023-04-16T06:34:37;9.13;87.24
68943;DHT22;60852;52.190;4.422;2023-04-16T06:37:03;9.05;87.34
68943;DHT22;60852;52.190;4.422;2023-04-16T06:39:28;9.03;87.49
68943;DHT22;60852;52.190;4.422;2023-04-16T06:41:54;9.05;87.42
68943;DHT22;60852;52.190;4.422;2023-04-16T06:44:20;9.07;87.34
68943;DHT22;60852;52.190;4.422;2023-04-16T06:46:45;8.96;87.49
68943;DHT22;60852;52.190;4.422;2023-04-16T06:49:11;9.01;87.75
68943;DHT22;60852;52.190;4.422;2023-04-16T06:51:36;9.03;87.74
68943;DHT22;60852;52.190;4.422;2023-04-16T06:54:02;9.05;88.09
68943;DHT22;60852;52.190;4.422;2023-04-16T06:56:27;9.11;87.89
68943;DHT22;60852;52.190;4.422;2023-04-16T06:58:53;9.17;87.95
68943;DHT22;60852;52.190;4.422;2023-04-16T07:01:21;9.13;87.61
68943;DHT22;60852;52.190;4.422;2023-04-16T07:03:46;9.14;87.87
68943;DHT22;60852;52.190;4.422;2023-04-16T07:06:12;9.17;87.98
68943;DHT22;60852;52.190;4.422;2023-04-16T07:08:37;9.21;87.84
68943;DHT22;60852;52.190;4.422;2023-04-16T07:11:03;9.30;87.61
68943;DHT22;60852;52.190;4.422;2023-04-16T07:13:29;9.28;87.54
68943;DHT22;60852;52.190;4.422;2023-04-16T07:15:54;9.27;87.36
68943;DHT22;60852;52.190;4.422;2023-04-16T07:18:20;9.17;87.52
68943;DHT22;60852;52.190;4.422;2023-04-16T07:20:45;9.21;87.24
68943;DHT22;60852;52.190;4.422;2023-04-16T07:23:11;9.14;87.24
68943;DHT22;60852;52.190;4.422;2023-04-16T07:25:37;9.27;87.23
68943;DHT22;60852;52.190;4.422;2023-04-16T07:28:02;9.24;86.95
68943;DHT22;60852;52.190;4.422;2023-04-16T07:30:28;9.24;87.00
68943;DHT22;60852;52.190;4.422;2023-04-16T07:33:00;9.32;87.12
68943;DHT22;60852;52.190;4.422;2023-04-16T07:35:25;9.35;86.95
68943;DHT22;60852;52.190;4.422;2023-04-16T07:37:51;9.36;87.00
68943;DHT22;60852;52.190;4.422;2023-04-16T07:40:16;9.44;86.72
68943;DHT22;60852;52.190;4.422;2023-04-16T07:42:42;9.44;86.38
68943;DHT22;60852;52.190;4.422;2023-04-16T07:45:08;9.48;86.23
68943;DHT22;60852;52.190;4.422;2023-04-16T07:47:33;9.46;86.00
68943;DHT22;60852;52.190;4.422;2023-04-16T07:49:59;9.46;85.73
68943;DHT22;60852;52.190;4.422;2023-04-16T07:52:24;9.44;85.45
68943;DHT22;60852;52.190;4.422;2023-04-16T07:54:50;9.38;85.49
68943;DHT22;60852;52.190;4.422;2023-04-16T07:57:16;9.32;85.68
68943;DHT22;60852;52.190;4.422;2023-04-16T07:59:41;9.31;85.97
68943;DHT22;60852;52.190;4.422;2023-04-16T08:02:11;9.39;85.98
68943;DHT22;60852;52.190;4.422;2023-04-16T08:04:39;9.41;85.55
68943;DHT22;60852;52.190;4.422;2023-04-16T08:07:05;9.41;85.74
68943;DHT22;60852;52.190;4.422;2023-04-16T08:09:30;9.42;85.89
68943;DHT22;60852;52.190;4.422;2023-04-16T08:11:56;9.49;85.62
68943;DHT22;60852;52.190;4.422;2023-04-16T08:14:21;9.56;85.31
68943;DHT22;60852;52.190;4.422;2023-04-16T08:16:47;9.52;85.17
68943;DHT22;60852;52.190;4.422;2023-04-16T08:19:12;9.51;85.45
68943;DHT22;60852;52.190;4.422;2023-04-16T08:21:38;9.55;85.44
68943;DHT22;60852;52.190;4.422;2023-04-16T08:24:04;9.55;85.58
68943;DHT22;60852;52.190;4.422;2023-04-16T08:26:29;9.58;85.36
68943;DHT22;60852;52.190;4.422;2023-04-16T08:28:55;9.61;85.24
68943;DHT22;60852;52.190;4.422;2023-04-16T08:31:20;9.52;85.29
68943;DHT22;60852;52.190;4.422;2023-04-16T08:33:46;9.53;85.62
68943;DHT22;60852;52.190;4.422;2023-04-16T08:36:11;9.59;85.42
68943;DHT22;60852;52.190;4.422;2023-04-16T08:38:37;9.59;85.58
68943;DHT22;60852;52.190;4.422;2023-04-16T08:41:05;9.59;85.27
68943;DHT22;60852;52.190;4.422;2023-04-16T08:43:36;9.55;85.64
68943;DHT22;60852;52.190;4.422;2023-04-16T08:46:04;9.55;85.67
68943;DHT22;60852;52.190;4.422;2023-04-16T08:48:32;9.63;85.61
68943;DHT22;60852;52.190;4.422;2023-04-16T08:51:00;9.62;85.23
68943;DHT22;60852;52.190;4.422;2023-04-16T08:53:39;9.61;85.50
68943;DHT22;60852;52.190;4.422;2023-04-16T08:56:08;9.58;85.27
68943;DHT22;60852;52.190;4.422;2023-04-16T08:58:37;9.61;85.46
68943;DHT22;60852;52.190;4.422;2023-04-16T09:01:04;9.52;84.96
68943;DHT22;60852;52.190;4.422;2023-04-16T09:03:31;9.61;85.16
68943;DHT22;60852;52.190;4.422;2023-04-16T09:05:57;9.58;84.75
68943;DHT22;60852;52.190;4.422;2023-04-16T09:08:24;9.55;84.86
68943;DHT22;60852;52.190;4.422;2023-04-16T09:10:50;9.63;84.51
68943;DHT22;60852;52.190;4.422;2023-04-16T09:13:16;9.68;84.25
68943;DHT22;60852;52.190;4.422;2023-04-16T09:15:44;9.71;84.19
68943;DHT22;60852;52.190;4.422;2023-04-16T09:18:10;9.72;84.30
68943;DHT22;60852;52.190;4.422;2023-04-16T09:20:37;9.71;84.01
68943;DHT22;60852;52.190;4.422;2023-04-16T09:23:03;9.66;84.01
68943;DHT22;60852;52.190;4.422;2023-04-16T09:25:32;9.69;84.21
68943;DHT22;60852;52.190;4.422;2023-04-16T09:27:59;9.68;84.24
68943;DHT22;60852;52.190;4.422;2023-04-16T09:30:26;9.63;84.41
68943;DHT22;60852;52.190;4.422;2023-04-16T09:35:45;9.79;83.68
68943;DHT22;60852;52.190;4.422;2023-04-16T09:38:11;9.87;83.66
68943;DHT22;60852;52.190;4.422;2023-04-16T09:40:37;9.86;83.55
68943;DHT22;60852;52.190;4.422;2023-04-16T09:43:16;9.97;83.67
68943;DHT22;60852;52.190;4.422;2023-04-16T09:45:52;10.03;83.53
68943;DHT22;60852;52.190;4.422;2023-04-16T09:50:54;10.03;83.33
68943;DHT22;60852;52.190;4.422;2023-04-16T09:53:27;10.00;83.27
68943;DHT22;60852;52.190;4.422;2023-04-16T09:56:00;10.02;82.90
68943;DHT22;60852;52.190;4.422;2023-04-16T09:58:26;9.92;82.89
68943;DHT22;60852;52.190;4.422;2023-04-16T10:01:11;9.90;83.23
68943;DHT22;60852;52.190;4.422;2023-04-16T10:03:39;9.89;83.18
68943;DHT22;60852;52.190;4.422;2023-04-16T10:06:19;9.87;83.07
68943;DHT22;60852;52.190;4.422;2023-04-16T10:08:49;9.92;83.18
68943;DHT22;60852;52.190;4.422;2023-04-16T10:11:16;9.94;82.71
68943;DHT22;60852;52.190;4.422;2023-04-16T10:13:42;9.89;82.71
68943;DHT22;60852;52.190;4.422;2023-04-16T10:16:07;9.92;82.89
68943;DHT22;60852;52.190;4.422;2023-04-16T10:18:40;9.97;82.62
68943;DHT22;60852;52.190;4.422;2023-04-16T10:21:07;9.94;82.36
68943;DHT22;60852;52.190;4.422;2023-04-16T10:23:37;10.02;82.21
68943;DHT22;60852;52.190;4.422;2023-04-16T10:26:04;10.03;82.21
68943;DHT22;60852;52.190;4.422;2023-04-16T10:28:30;9.94;82.27
68943;DHT22;60852;52.190;4.422;2023-04-16T10:31:01;10.00;82.54
68943;DHT22;60852;52.190;4.422;2023-04-16T10:33:30;10.06;82.40
68943;DHT22;60852;52.190;4.422;2023-04-16T10:38:46;10.10;82.35
68943;DHT22;60852;52.190;4.422;2023-04-16T10:41:12;10.13;82.37
68943;DHT22;60852;52.190;4.422;2023-04-16T10:43:43;10.09;82.41
68943;DHT22;60852;52.190;4.422;2023-04-16T10:46:29;10.07;82.32
68943;DHT22;60852;52.190;4.422;2023-04-16T10:48:59;10.04;82.58
68943;DHT22;60852;52.190;4.422;2023-04-16T10:51:31;10.09;82.65
68943;DHT22;60852;52.190;4.422;2023-04-16T10:56:38;10.04;82.19
68943;DHT22;60852;52.190;4.422;2023-04-16T10:59:06;10.17;82.24
68943;DHT22;60852;52.190;4.422;2023-04-16T11:01:53;10.20;82.07
68943;DHT22;60852;52.190;4.422;2023-04-16T11:14:51;10.37;81.31
68943;DHT22;60852;52.190;4.422;2023-04-16T11:17:17;10.36;81.38
68943;DHT22;60852;52.190;4.422;2023-04-16T11:19:43;10.21;81.74
68943;DHT22;60852;52.190;4.422;2023-04-16T11:22:12;10.23;81.63
68943;DHT22;60852;52.190;4.422;2023-04-16T11:24:38;10.20;81.91
68943;DHT22;60852;52.190;4.422;2023-04-16T11:27:06;10.23;81.94
68943;DHT22;60852;52.190;4.422;2023-04-16T11:29:31;10.31;82.06
68943;DHT22;60852;52.190;4.422;2023-04-16T11:31:56;10.27;81.93
68943;DHT22;60852;52.190;4.422;2023-04-16T11:34:22;10.30;81.87
68943;DHT22;60852;52.190;4.422;2023-04-16T11:36:50;10.38;81.99
68943;DHT22;60852;52.190;4.422;2023-04-16T11:39:16;10.50;81.35
68943;DHT22;60852;52.190;4.422;2023-04-16T11:41:47;10.50;81.38
68943;DHT22;60852;52.190;4.422;2023-04-16T11:44:17;10.38;81.53
68943;DHT22;60852;52.190;4.422;2023-04-16T11:46:42;10.44;81.77
68943;DHT22;60852;52.190;4.422;2023-04-16T11:49:08;10.41;81.68
68943;DHT22;60852;52.190;4.422;2023-04-16T11:51:39;10.52;82.01
68943;DHT22;60852;52.190;4.422;2023-04-16T11:54:05;10.55;81.43
68943;DHT22;60852;52.190;4.422;2023-04-16T11:56:33;10.62;81.48
68943;DHT22;60852;52.190;4.422;2023-04-16T11:59:16;10.73;80.85
68943;DHT22;60852;52.190;4.422;2023-04-16T12:01:49;10.79;80.92
68943;DHT22;60852;52.190;4.422;2023-04-16T12:04:18;10.78;81.04
68943;DHT22;60852;52.190;4.422;2023-04-16T12:07:06;10.73;80.81
68943;DHT22;60852;52.190;4.422;2023-04-16T12:09:34;10.69;81.10
68943;DHT22;60852;52.190;4.422;2023-04-16T12:12:00;10.65;81.00
68943;DHT22;60852;52.190;4.422;2023-04-16T12:14:27;10.51;81.26
68943;DHT22;60852;52.190;4.422;2023-04-16T12:16:53;10.36;82.02
68943;DHT22;60852;52.190;4.422;2023-04-16T12:19:18;10.41;82.39
68943;DHT22;60852;52.190;4.422;2023-04-16T12:21:46;10.44;82.00
68943;DHT22;60852;52.190;4.422;2023-04-16T12:24:16;10.42;81.97
68943;DHT22;60852;52.190;4.422;2023-04-16T12:26:46;10.31;82.36
68943;DHT22;60852;52.190;4.422;2023-04-16T12:29:20;10.40;82.64
68943;DHT22;60852;52.190;4.422;2023-04-16T12:31:47;10.45;82.04
68943;DHT22;60852;52.190;4.422;2023-04-16T12:34:13;10.48;81.79
68943;DHT22;60852;52.190;4.422;2023-04-16T12:36:44;10.55;81.56
68943;DHT22;60852;52.190;4.422;2023-04-16T12:39:11;10.64;81.19
68943;DHT22;60852;52.190;4.422;2023-04-16T12:41:39;10.60;80.79
68943;DHT22;60852;52.190;4.422;2023-04-16T12:44:09;10.69;81.03
68943;DHT22;60852;52.190;4.422;2023-04-16T12:46:39;10.68;80.76
68943;DHT22;60852;52.190;4.422;2023-04-16T12:49:04;10.65;80.94
68943;DHT22;60852;52.190;4.422;2023-04-16T12:51:31;10.61;81.28
68943;DHT22;60852;52.190;4.422;2023-04-16T12:53:57;10.79;81.12
68943;DHT22;60852;52.190;4.422;2023-04-16T12:56:23;10.76;80.39
68943;DHT22;60852;52.190;4.422;2023-04-16T12:58:49;10.68;80.84
68943;DHT22;60852;52.190;4.422;2023-04-16T13:01:17;10.73;80.92
68943;DHT22;60852;52.190;4.422;2023-04-16T13:03:43;10.69;80.83
68943;DHT22;60852;52.190;4.422;2023-04-16T13:06:08;10.62;80.74
68943;DHT22;60852;52.190;4.422;2023-04-16T13:08:34;10.64;80.78
68943;DHT22;60852;52.190;4.422;2023-04-16T13:11:00;10.60;81.23
68943;DHT22;60852;52.190;4.422;2023-04-16T13:13:25;10.57;81.28
68943;DHT22;60852;52.190;4.422;2023-04-16T13:15:51;10.69;80.88
68943;DHT22;60852;52.190;4.422;2023-04-16T13:18:16;10.79;80.59
68943;DHT22;60852;52.190;4.422;2023-04-16T13:20:41;10.92;80.11
68943;DHT22;60852;52.190;4.422;2023-04-16T13:23:08;11.01;79.68
68943;DHT22;60852;52.190;4.422;2023-04-16T13:25:33;10.96;79.59
68943;DHT22;60852;52.190;4.422;2023-04-16T13:27:59;11.02;79.85
68943;DHT22;60852;52.190;4.422;2023-04-16T13:30:24;10.99;79.52
68943;DHT22;60852;52.190;4.422;2023-04-16T13:32:50;10.88;79.45
68943;DHT22;60852;52.190;4.422;2023-04-16T13:35:15;10.89;79.95
68943;DHT22;60852;52.190;4.422;2023-04-16T13:37:41;10.93;79.67
68943;DHT22;60852;52.190;4.422;2023-04-16T13:40:07;11.08;79.55
68943;DHT22;60852;52.190;4.422;2023-04-16T13:42:32;10.91;79.49
68943;DHT22;60852;52.190;4.422;2023-04-16T13:44:58;10.85;79.90
68943;DHT22;60852;52.190;4.422;2023-04-16T13:47:23;10.85;80.01
68943;DHT22;60852;52.190;4.422;2023-04-16T13:49:49;10.79;80.16
68943;DHT22;60852;52.190;4.422;2023-04-16T13:52:15;10.82;80.04
68943;DHT22;60852;52.190;4.422;2023-04-16T13:54:40;10.96;79.74
68943;DHT22;60852;52.190;4.422;2023-04-16T13:57:06;11.05;79.22
68943;DHT22;60852;52.190;4.422;2023-04-16T13:59:32;11.15;79.11
68943;DHT22;60852;52.190;4.422;2023-04-16T14:01:58;10.98;79.04
68943;DHT22;60852;52.190;4.422;2023-04-16T14:04:23;11.03;78.90
68943;DHT22;60852;52.190;4.422;2023-04-16T14:06:49;11.03;79.43
68943;DHT22;60852;52.190;4.422;2023-04-16T14:09:14;10.89;79.64
68943;DHT22;60852;52.190;4.422;2023-04-16T14:11:40;11.01;79.42
68943;DHT22;60852;52.190;4.422;2023-04-16T14:14:05;11.02;79.00
68943;DHT22;60852;52.190;4.422;2023-04-16T14:16:31;10.96;79.12
68943;DHT22;60852;52.190;4.422;2023-04-16T14:18:57;10.91;78.94
68943;DHT22;60852;52.190;4.422;2023-04-16T14:21:22;10.85;79.11
68943;DHT22;60852;52.190;4.422;2023-04-16T14:23:48;10.83;79.66
68943;DHT22;60852;52.190;4.422;2023-04-16T14:26:13;10.75;79.83
68943;DHT22;60852;52.190;4.422;2023-04-16T14:28:40;10.76;80.10
68943;DHT22;60852;52.190;4.422;2023-04-16T14:31:05;10.93;79.74
68943;DHT22;60852;52.190;4.422;2023-04-16T14:33:31;11.01;78.93
68943;DHT22;60852;52.190;4.422;2023-04-16T14:35:56;10.96;78.75
68943;DHT22;60852;52.190;4.422;2023-04-16T14:38:22;10.96;78.99
68943;DHT22;60852;52.190;4.422;2023-04-16T14:40:47;10.99;79.20
68943;DHT22;60852;52.190;4.422;2023-04-16T14:43:13;10.79;79.20
68943;DHT22;60852;52.190;4.422;2023-04-16T14:45:39;10.71;79.91
68943;DHT22;60852;52.190;4.422;2023-04-16T14:48:05;10.62;80.03
68943;DHT22;60852;52.190;4.422;2023-04-16T14:50:30;10.52;80.45
68943;DHT22;60852;52.190;4.422;2023-04-16T14:52:56;10.50;80.50
68943;DHT22;60852;52.190;4.422;2023-04-16T14:55:21;10.55;80.74
68943;DHT22;60852;52.190;4.422;2023-04-16T14:57:46;10.51;80.88
68943;DHT22;60852;52.190;4.422;2023-04-16T15:00:13;10.64;80.66
68943;DHT22;60852;52.190;4.422;2023-04-16T15:02:41;10.72;80.34
68943;DHT22;60852;52.190;4.422;2023-04-16T15:05:07;10.68;79.95
68943;DHT22;60852;52.190;4.422;2023-04-16T15:07:35;10.78;80.13
68943;DHT22;60852;52.190;4.422;2023-04-16T15:10:01;10.91;79.84
68943;DHT22;60852;52.190;4.422;2023-04-16T15:12:26;10.81;79.76
68943;DHT22;60852;52.190;4.422;2023-04-16T15:14:52;10.83;79.81
68943;DHT22;60852;52.190;4.422;2023-04-16T15:17:18;10.75;79.97
68943;DHT22;60852;52.190;4.422;2023-04-16T15:19:43;10.69;80.14
68943;DHT22;60852;52.190;4.422;2023-04-16T15:22:09;10.60;80.74
68943;DHT22;60852;52.190;4.422;2023-04-16T15:24:34;10.65;80.85
68943;DHT22;60852;52.190;4.422;2023-04-16T15:27:00;10.62;81.02
68943;DHT22;60852;52.190;4.422;2023-04-16T15:29:27;10.61;80.76
68943;DHT22;60852;52.190;4.422;2023-04-16T15:31:52;10.55;80.98
68943;DHT22;60852;52.190;4.422;2023-04-16T15:34:17;10.42;81.53
68943;DHT22;60852;52.190;4.422;2023-04-16T15:36:43;10.47;81.58
68943;DHT22;60852;52.190;4.422;2023-04-16T15:39:09;10.54;81.48
68943;DHT22;60852;52.190;4.422;2023-04-16T15:41:34;10.71;81.15
68943;DHT22;60852;52.190;4.422;2023-04-16T15:44:04;10.73;80.70
68943;DHT22;60852;52.190;4.422;2023-04-16T15:46:30;10.75;80.65
68943;DHT22;60852;52.190;4.422;2023-04-16T15:48:55;10.81;80.78
68943;DHT22;60852;52.190;4.422;2023-04-16T15:51:21;10.76;80.71
68943;DHT22;60852;52.190;4.422;2023-04-16T15:53:47;10.88;80.71
68943;DHT22;60852;52.190;4.422;2023-04-16T15:56:14;10.92;80.23